createdAt,value
2018-08-22T00:01:25.713Z,92.80
2018-08-22T00:03:55.068Z,92.80
2018-08-22T00:06:24.402Z,93.00
2018-08-22T00:08:53.758Z,93.00
2018-08-22T00:11:23.151Z,92.80
2018-08-22T00:13:52.500Z,93.00
2018-08-22T00:16:21.894Z,93.10
2018-08-22T00:18:51.256Z,93.40
2018-08-22T00:21:20.648Z,93.50
2018-08-22T00:23:50.009Z,93.60
2018-08-22T00:26:19.406Z,93.60
2018-08-22T00:28:48.816Z,93.70
2018-08-22T00:31:18.223Z,93.70
2018-08-22T00:33:47.563Z,93.70
2018-08-22T00:36:16.908Z,93.80
2018-08-22T00:38:46.247Z,93.90
2018-08-22T00:41:15.606Z,94.00
2018-08-22T00:43:44.980Z,94.60
2018-08-22T00:46:14.398Z,94.40
2018-08-22T00:48:43.786Z,94.50
2018-08-22T00:51:13.152Z,94.50
2018-08-22T00:53:42.541Z,94.60
2018-08-22T00:56:12.002Z,94.80
2018-08-22T00:58:41.492Z,94.80
2018-08-22T01:01:10.975Z,94.90
2018-08-22T01:03:40.295Z,94.80
2018-08-22T01:06:09.655Z,94.90
2018-08-22T01:08:39.007Z,94.90
2018-08-22T01:11:08.394Z,94.90
2018-08-22T01:13:37.744Z,95.10
2018-08-22T01:16:07.254Z,95.00
2018-08-22T01:18:36.604Z,95.00
2018-08-22T01:21:06.584Z,95.10
2018-08-22T01:23:35.931Z,95.20
2018-08-22T01:26:05.240Z,95.40
2018-08-22T01:28:34.599Z,95.30
2018-08-22T01:31:04.492Z,95.40
2018-08-22T01:33:34.018Z,95.40
2018-08-22T01:36:03.489Z,95.90
2018-08-22T01:38:32.865Z,95.70
2018-08-22T01:41:02.219Z,95.90
2018-08-22T01:43:31.602Z,96.20
2018-08-22T01:46:00.938Z,96.30
2018-08-22T01:48:30.337Z,96.40
2018-08-22T01:50:59.682Z,96.50
2018-08-22T01:53:29.145Z,96.60
2018-08-22T01:55:58.522Z,96.70
2018-08-22T01:58:27.977Z,96.80
2018-08-22T02:00:57.508Z,96.90
2018-08-22T02:03:26.881Z,97.00
2018-08-22T02:05:56.296Z,97.10
2018-08-22T02:08:25.633Z,97.00
2018-08-22T02:10:55.033Z,97.30
2018-08-22T02:13:24.407Z,97.20
2018-08-22T02:15:53.767Z,97.30
2018-08-22T02:18:23.094Z,97.30
2018-08-22T02:20:52.501Z,97.40
2018-08-22T02:23:21.884Z,97.60
2018-08-22T02:25:51.276Z,97.50
2018-08-22T02:28:20.595Z,97.50
2018-08-22T02:33:49.554Z,97.60
2018-08-22T02:36:18.956Z,97.60
2018-08-22T02:38:48.371Z,97.70
2018-08-22T02:41:17.706Z,97.80
2018-08-22T02:43:47.016Z,97.80
2018-08-22T02:46:16.347Z,98.00
2018-08-22T02:48:51.012Z,98.10
2018-08-22T02:51:20.630Z,98.10
2018-08-22T02:53:50.150Z,98.20
2018-08-22T02:56:19.577Z,98.20
2018-08-22T02:58:49.005Z,98.30
2018-08-22T03:01:18.327Z,98.40
2018-08-22T03:03:47.687Z,98.50
2018-08-22T03:06:17.071Z,98.50
2018-08-22T03:08:46.559Z,98.50
2018-08-22T03:11:15.989Z,98.50
2018-08-22T03:13:45.322Z,98.50
2018-08-22T03:16:14.713Z,98.90
2018-08-22T03:18:44.115Z,98.60
2018-08-22T03:21:13.521Z,98.70
2018-08-22T03:23:42.878Z,98.70
2018-08-22T03:26:12.284Z,98.70
2018-08-22T03:28:41.645Z,98.80
2018-08-22T03:31:11.009Z,98.80
2018-08-22T03:33:40.391Z,98.80
2018-08-22T03:36:09.753Z,98.80
2018-08-22T03:38:39.171Z,98.90
2018-08-22T03:41:08.521Z,98.90
2018-08-22T03:43:37.851Z,98.90
2018-08-22T03:46:07.203Z,98.90
2018-08-22T03:48:35.575Z,98.90
2018-08-22T03:51:04.958Z,98.90
2018-08-22T03:53:33.613Z,98.90
2018-08-22T03:56:02.260Z,98.90
2018-08-22T03:58:30.971Z,99.10
2018-08-22T04:01:00.330Z,99.10
2018-08-22T04:03:29.064Z,99.20
2018-08-22T04:05:57.773Z,99.20
2018-08-22T04:08:27.170Z,99.40
2018-08-22T04:10:55.875Z,99.40
2018-08-22T04:13:24.500Z,99.60
2018-08-22T04:15:53.806Z,99.50
2018-08-22T04:18:22.470Z,99.60
2018-08-22T04:20:51.813Z,99.70
2018-08-22T04:23:21.193Z,99.80
2018-08-22T04:25:50.510Z,99.80
2018-08-22T04:28:19.849Z,99.90
2018-08-22T04:30:49.247Z,99.90
2018-08-22T04:33:18.605Z,99.90
2018-08-22T04:35:47.991Z,99.90
2018-08-22T04:38:16.648Z,99.90
2018-08-22T04:40:45.356Z,99.90
2018-08-22T04:43:13.946Z,99.90
2018-08-22T04:45:43.313Z,99.90
2018-08-22T04:48:12.756Z,99.90
2018-08-22T04:50:42.127Z,99.90
2018-08-22T04:53:11.604Z,99.90
2018-08-22T04:55:40.941Z,99.90
2018-08-22T04:58:10.330Z,99.90
2018-08-22T05:00:39.652Z,99.90
2018-08-22T05:03:09.070Z,99.90
2018-08-22T05:05:38.454Z,99.90
2018-08-22T05:08:07.088Z,99.90
2018-08-22T05:10:35.772Z,99.90
2018-08-22T05:13:05.175Z,99.90
2018-08-22T05:15:34.604Z,99.90
2018-08-22T05:18:04.031Z,99.90
2018-08-22T05:20:33.423Z,99.90
2018-08-22T05:23:02.151Z,99.90
2018-08-22T05:25:30.784Z,99.90
2018-08-22T05:27:59.400Z,99.90
2018-08-22T05:30:28.772Z,99.90
2018-08-22T05:32:57.412Z,99.90
2018-08-22T05:35:26.733Z,99.90
2018-08-22T05:37:56.170Z,99.90
2018-08-22T05:40:25.497Z,99.70
2018-08-22T05:42:55.016Z,98.90
2018-08-22T05:45:24.493Z,98.10
2018-08-22T05:47:53.929Z,97.30
2018-08-22T05:50:23.322Z,96.90
2018-08-22T05:52:52.749Z,96.40
2018-08-22T05:55:22.115Z,95.30
2018-08-22T05:57:51.483Z,94.60
2018-08-22T06:00:20.852Z,94.10
2018-08-22T06:02:50.243Z,93.50
2018-08-22T06:05:19.587Z,93.30
2018-08-22T06:07:49.014Z,92.90
2018-08-22T06:10:18.357Z,92.40
2018-08-22T06:12:47.725Z,92.30
2018-08-22T06:15:17.089Z,91.80
2018-08-22T06:17:53.057Z,91.60
2018-08-22T06:20:22.425Z,91.40
2018-08-22T06:22:51.799Z,90.90
2018-08-22T06:25:21.262Z,90.30
2018-08-22T06:27:50.712Z,90.60
2018-08-22T06:30:20.064Z,90.60
2018-08-22T06:32:49.450Z,89.80
2018-08-22T06:35:18.828Z,89.30
2018-08-22T06:37:48.238Z,89.60
2018-08-22T06:40:17.576Z,89.50
2018-08-22T06:42:46.999Z,88.50
2018-08-22T06:45:16.444Z,88.00
2018-08-22T06:47:51.978Z,88.30
2018-08-22T06:50:21.408Z,88.70
2018-08-22T06:52:50.772Z,89.20
2018-08-22T06:55:20.152Z,90.00
2018-08-22T06:57:49.522Z,90.00
2018-08-22T07:00:18.912Z,90.20
2018-08-22T07:02:48.345Z,89.70
2018-08-22T07:05:17.724Z,89.60
2018-08-22T07:07:47.127Z,89.60
2018-08-22T07:10:16.612Z,89.00
2018-08-22T07:12:46.085Z,89.30
2018-08-22T07:15:15.630Z,89.10
2018-08-22T07:17:44.990Z,88.90
2018-08-22T07:20:14.377Z,89.10
2018-08-22T07:22:43.790Z,88.40
2018-08-22T07:25:13.237Z,88.20
2018-08-22T07:27:42.641Z,87.60
2018-08-22T07:30:12.121Z,87.80
2018-08-22T07:32:41.376Z,88.40
2018-08-22T07:35:10.772Z,87.90
2018-08-22T07:37:40.181Z,87.50
2018-08-22T07:40:09.637Z,87.80
2018-08-22T07:42:39.055Z,87.90
2018-08-22T07:45:08.514Z,88.10
2018-08-22T07:47:37.922Z,88.10
2018-08-22T07:50:07.372Z,87.30
2018-08-22T07:52:37.417Z,87.50
2018-08-22T07:55:06.867Z,86.30
2018-08-22T07:57:36.378Z,86.70
2018-08-22T08:00:06.194Z,86.80
2018-08-22T08:02:35.526Z,87.50
2018-08-22T08:05:05.074Z,86.90
2018-08-22T08:07:34.545Z,87.30
2018-08-22T08:10:04.008Z,87.30
2018-08-22T08:12:40.178Z,88.10
2018-08-22T08:15:09.623Z,87.10
2018-08-22T08:17:39.057Z,88.20
2018-08-22T08:20:08.467Z,87.50
2018-08-22T08:22:37.859Z,87.20
2018-08-22T08:25:07.276Z,86.50
2018-08-22T08:27:37.531Z,86.50
2018-08-22T08:30:07.611Z,87.00
2018-08-22T08:32:36.964Z,85.50
2018-08-22T08:35:06.503Z,86.40
2018-08-22T08:37:35.882Z,85.40
2018-08-22T08:40:05.582Z,85.70
2018-08-22T08:42:35.061Z,85.30
2018-08-22T08:45:05.003Z,84.30
2018-08-22T08:47:34.423Z,84.30
2018-08-22T08:50:03.851Z,85.00
2018-08-22T08:52:33.207Z,84.00
2018-08-22T08:55:02.613Z,83.50
2018-08-22T08:57:32.044Z,83.40
2018-08-22T09:00:01.763Z,81.60
2018-08-22T09:02:31.200Z,82.30
2018-08-22T09:05:00.568Z,82.20
2018-08-22T09:07:29.928Z,82.50
2018-08-22T09:09:59.323Z,81.90
2018-08-22T09:12:28.776Z,81.90
2018-08-22T09:14:58.211Z,81.90
2018-08-22T09:17:27.577Z,81.20
2018-08-22T09:19:56.929Z,80.80
2018-08-22T09:22:26.361Z,81.40
2018-08-22T09:24:55.715Z,81.20
2018-08-22T09:27:25.086Z,80.60
2018-08-22T09:29:55.313Z,80.50
2018-08-22T09:32:24.713Z,81.00
2018-08-22T09:34:54.070Z,81.00
2018-08-22T09:37:23.731Z,80.50
2018-08-22T09:39:53.210Z,80.60
2018-08-22T09:42:22.540Z,80.70
2018-08-22T09:44:51.931Z,79.80
2018-08-22T09:47:21.416Z,80.00
2018-08-22T09:49:50.786Z,79.80
2018-08-22T09:52:20.171Z,79.00
2018-08-22T09:55:01.130Z,79.40
2018-08-22T09:57:31.023Z,80.70
2018-08-22T10:00:00.511Z,80.50
2018-08-22T10:02:29.863Z,79.60
2018-08-22T10:05:00.548Z,79.10
2018-08-22T10:07:29.961Z,78.90
2018-08-22T10:09:59.337Z,79.40
2018-08-22T10:12:28.699Z,78.90
2018-08-22T10:14:58.088Z,78.20
2018-08-22T10:17:27.495Z,79.20
2018-08-22T10:19:56.943Z,77.70
2018-08-22T10:22:26.572Z,78.20
2018-08-22T10:24:55.932Z,77.90
2018-08-22T10:27:25.309Z,77.30
2018-08-22T10:29:54.646Z,77.70
2018-08-22T10:32:24.091Z,75.90
2018-08-22T10:34:53.478Z,75.80
2018-08-22T10:37:22.767Z,76.00
2018-08-22T10:39:52.161Z,76.40
2018-08-22T10:42:21.587Z,75.00
2018-08-22T10:44:51.344Z,75.20
2018-08-22T10:47:20.691Z,75.30
2018-08-22T10:49:50.070Z,74.80
2018-08-22T10:52:19.394Z,74.80
2018-08-22T10:54:48.799Z,74.80
2018-08-22T10:57:18.203Z,73.40
2018-08-22T10:59:47.595Z,73.70
2018-08-22T11:02:17.028Z,73.60
2018-08-22T11:04:46.435Z,73.60
2018-08-22T11:07:15.812Z,72.70
2018-08-22T11:09:45.304Z,71.90
2018-08-22T11:12:14.727Z,71.50
2018-08-22T11:14:44.146Z,71.50
2018-08-22T11:17:13.506Z,71.80
2018-08-22T11:19:42.929Z,70.90
2018-08-22T11:22:29.197Z,71.50
2018-08-22T11:25:15.220Z,71.80
2018-08-22T11:28:01.295Z,71.70
2018-08-22T11:30:47.668Z,72.30
2018-08-22T11:33:33.669Z,71.20
2018-08-22T11:36:01.392Z,70.50
2018-08-22T11:38:30.767Z,70.40
2018-08-22T11:41:00.183Z,69.60
2018-08-22T11:43:29.531Z,69.30
2018-08-22T11:45:58.966Z,69.50
2018-08-22T11:48:28.355Z,69.80
2018-08-22T11:50:57.723Z,68.70
2018-08-22T11:53:27.148Z,69.40
2018-08-22T11:55:56.600Z,68.60
2018-08-22T11:58:25.262Z,68.40
2018-08-22T12:00:53.900Z,68.50
2018-08-22T12:03:22.510Z,69.10
2018-08-22T12:05:51.142Z,68.70
2018-08-22T12:08:20.513Z,69.20
2018-08-22T12:10:49.152Z,69.00
2018-08-22T12:13:17.822Z,69.00
2018-08-22T12:15:46.462Z,69.40
2018-08-22T12:18:15.837Z,69.50
2018-08-22T12:20:45.195Z,69.10
2018-08-22T12:23:14.693Z,69.00
2018-08-22T12:25:43.967Z,67.80
2018-08-22T12:28:13.441Z,68.20
2018-08-22T12:30:42.853Z,68.70
2018-08-22T12:33:12.240Z,69.10
2018-08-22T12:35:41.614Z,67.60
2018-08-22T12:38:10.996Z,67.70
2018-08-22T12:40:40.420Z,67.70
2018-08-22T12:43:09.059Z,68.50
2018-08-22T12:45:37.723Z,68.30
2018-08-22T12:48:09.100Z,67.60
2018-08-22T12:50:38.439Z,67.00
2018-08-22T12:53:07.175Z,66.60
2018-08-22T12:55:35.832Z,67.20
2018-08-22T12:58:04.592Z,65.00
2018-08-22T13:00:33.236Z,65.50
2018-08-22T13:03:01.894Z,65.50
2018-08-22T13:05:31.287Z,64.80
2018-08-22T13:08:00.626Z,65.30
2018-08-22T13:10:30.145Z,65.40
2018-08-22T13:12:59.481Z,65.10
2018-08-22T13:15:28.927Z,65.20
2018-08-22T13:17:58.331Z,64.70
2018-08-22T13:20:27.660Z,65.30
2018-08-22T13:22:57.173Z,66.00
2018-08-22T13:25:26.529Z,66.10
2018-08-22T13:27:55.854Z,66.20
2018-08-22T13:30:25.272Z,65.40
2018-08-22T13:32:54.705Z,65.80
2018-08-22T13:35:24.103Z,65.30
2018-08-22T13:37:54.138Z,65.60
2018-08-22T13:40:23.556Z,66.20
2018-08-22T13:42:53.033Z,64.80
2018-08-22T13:45:22.495Z,65.40
2018-08-22T13:47:52.007Z,65.00
2018-08-22T13:50:21.439Z,64.50
2018-08-22T13:52:50.802Z,63.70
2018-08-22T13:55:20.145Z,64.10
2018-08-22T13:57:49.535Z,63.90
2018-08-22T14:00:18.960Z,64.40
2018-08-22T14:02:48.353Z,64.90
2018-08-22T14:05:17.735Z,63.40
2018-08-22T14:07:47.078Z,63.10
2018-08-22T14:10:16.468Z,63.30
2018-08-22T14:12:45.874Z,63.90
2018-08-22T14:15:15.405Z,63.40
2018-08-22T14:17:44.820Z,63.40
2018-08-22T14:20:14.654Z,62.90
2018-08-22T14:22:44.075Z,63.60
2018-08-22T14:25:13.669Z,64.10
2018-08-22T14:27:43.070Z,63.70
2018-08-22T14:30:12.452Z,64.30
2018-08-22T14:32:41.872Z,63.80
2018-08-22T14:35:11.243Z,64.30
2018-08-22T14:37:40.675Z,63.80
2018-08-22T14:40:10.076Z,63.20
2018-08-22T14:42:39.882Z,63.40
2018-08-22T14:47:53.341Z,63.20
2018-08-22T14:50:22.705Z,63.50
2018-08-22T14:52:52.398Z,62.70
2018-08-22T14:55:21.895Z,63.30
2018-08-22T14:57:51.244Z,63.00
2018-08-22T15:00:20.676Z,62.60
2018-08-22T15:02:51.069Z,62.80
2018-08-22T15:05:20.251Z,63.20
2018-08-22T15:07:49.600Z,62.10
2018-08-22T15:10:19.304Z,61.70
2018-08-22T15:12:49.111Z,62.50
2018-08-22T15:15:18.465Z,61.50
2018-08-22T15:17:47.819Z,61.20
2018-08-22T15:20:17.350Z,61.80
2018-08-22T15:22:46.762Z,62.30
2018-08-22T15:25:16.143Z,62.30
2018-08-22T15:27:45.708Z,62.90
2018-08-22T15:31:18.166Z,61.50
2018-08-22T15:33:47.579Z,61.80
2018-08-22T15:36:17.808Z,62.50
2018-08-22T15:38:50.486Z,63.80
2018-08-22T15:41:20.830Z,63.40
2018-08-22T15:43:52.335Z,65.70
2018-08-22T15:46:21.778Z,63.70
2018-08-22T15:48:51.216Z,65.50
2018-08-22T15:51:20.577Z,68.90
2018-08-22T15:54:21.554Z,69.80
2018-08-22T15:56:50.998Z,70.50
2018-08-22T15:59:20.375Z,71.70
2018-08-22T16:01:49.763Z,72.30
2018-08-22T16:04:19.137Z,72.80
2018-08-22T16:06:53.807Z,73.20
2018-08-22T16:09:27.229Z,73.80
2018-08-22T16:11:56.768Z,74.10
2018-08-22T16:14:26.403Z,74.80
2018-08-22T16:16:55.861Z,75.30
2018-08-22T16:19:25.407Z,75.30
2018-08-22T16:21:54.787Z,75.80
2018-08-22T16:24:28.636Z,76.80
2018-08-22T16:26:58.057Z,77.50
2018-08-22T16:29:26.657Z,77.80
2018-08-22T16:31:56.029Z,78.20
2018-08-22T16:34:24.663Z,79.40
2018-08-22T16:36:53.317Z,79.40
2018-08-22T16:39:38.007Z,79.80
2018-08-22T16:42:07.318Z,81.10
2018-08-22T16:44:36.101Z,81.70
2018-08-22T16:47:04.773Z,85.10
2018-08-22T16:49:33.558Z,84.10
2018-08-22T16:52:02.063Z,85.30
2018-08-22T16:54:30.696Z,88.50
2018-08-22T16:56:59.400Z,87.90
2018-08-22T16:59:28.014Z,86.80
2018-08-22T17:01:56.815Z,86.80
2018-08-22T17:04:25.457Z,87.80
2018-08-22T17:06:54.193Z,87.80
2018-08-22T17:09:22.863Z,88.10
2018-08-22T17:11:51.526Z,88.60
2018-08-22T17:14:20.199Z,86.60
2018-08-22T17:16:48.848Z,87.50
2018-08-22T17:19:17.534Z,87.00
2018-08-22T17:21:46.227Z,87.70
2018-08-22T17:24:14.923Z,87.90
2018-08-22T17:26:43.552Z,88.60
2018-08-22T17:29:12.470Z,88.70
2018-08-22T17:31:41.130Z,88.40
2018-08-22T17:34:09.783Z,87.50
2018-08-22T17:36:39.150Z,86.60
2018-08-22T17:39:07.931Z,85.80
2018-08-22T17:41:36.597Z,84.80
2018-08-22T17:44:08.339Z,85.50
2018-08-22T17:46:38.319Z,84.90
2018-08-22T17:49:06.978Z,84.50
2018-08-22T17:52:10.339Z,84.10
2018-08-22T17:54:38.977Z,85.00
2018-08-22T17:57:20.653Z,84.50
2018-08-22T17:59:49.293Z,84.40
2018-08-22T18:02:17.982Z,83.90
2018-08-22T18:04:56.512Z,83.40
2018-08-22T18:07:25.154Z,84.10
2018-08-22T18:09:53.766Z,83.40
2018-08-22T18:12:26.651Z,83.80
2018-08-22T18:14:58.423Z,85.90
2018-08-22T18:17:27.098Z,86.50
2018-08-22T18:19:55.701Z,86.90
2018-08-22T18:22:28.418Z,86.90
2018-08-22T18:24:57.751Z,87.20
2018-08-22T18:27:26.858Z,87.30
2018-08-22T18:29:55.436Z,87.60
2018-08-22T18:32:24.081Z,88.70
2018-08-22T18:35:07.319Z,89.10
2018-08-22T18:37:36.010Z,89.00
2018-08-22T18:40:15.319Z,89.90
2018-08-22T18:42:46.798Z,89.70
2018-08-22T18:45:15.530Z,89.60
2018-08-22T18:47:44.153Z,90.00
2018-08-22T18:50:12.788Z,90.00
2018-08-22T18:52:42.187Z,90.20
2018-08-22T18:55:11.595Z,90.30
2018-08-22T18:57:40.319Z,90.40
2018-08-22T19:00:09.399Z,90.50
2018-08-22T19:02:38.044Z,90.60
2018-08-22T19:05:19.690Z,90.90
2018-08-22T19:08:06.363Z,91.10
2018-08-22T19:10:36.793Z,91.50
2018-08-22T19:13:10.867Z,91.10
2018-08-22T19:15:39.471Z,91.40
2018-08-22T19:18:09.283Z,91.60
2018-08-22T19:20:38.289Z,91.80
2018-08-22T19:23:06.961Z,92.00
2018-08-22T19:25:35.668Z,92.30
2018-08-22T19:28:04.291Z,92.30
2018-08-22T19:30:35.342Z,92.40
2018-08-22T19:33:04.985Z,92.40
2018-08-22T19:35:33.620Z,92.90
2018-08-22T19:38:06.046Z,92.90
2018-08-22T19:40:35.208Z,93.00
2018-08-22T19:43:03.954Z,93.00
2018-08-22T19:45:34.879Z,92.90
2018-08-22T19:48:03.591Z,93.10
2018-08-22T19:50:32.594Z,93.50
2018-08-22T19:53:01.244Z,93.40
2018-08-22T19:55:30.334Z,93.40
2018-08-22T19:57:58.976Z,93.50
2018-08-22T20:00:27.758Z,93.60
2018-08-22T20:02:56.417Z,94.30
2018-08-22T20:05:25.043Z,94.10
2018-08-22T20:07:53.651Z,94.40
2018-08-22T20:10:23.485Z,94.40
2018-08-22T20:12:55.084Z,94.60
2018-08-22T20:15:24.687Z,94.90
2018-08-22T20:17:54.435Z,95.20
2018-08-22T20:20:23.223Z,95.20
2018-08-22T20:22:53.710Z,95.20
2018-08-22T20:25:22.317Z,95.60
2018-08-22T20:27:51.016Z,95.80
2018-08-22T20:30:20.723Z,95.90
2018-08-22T20:32:57.587Z,96.10
2018-08-22T20:35:30.573Z,96.30
2018-08-22T20:38:00.619Z,96.50
2018-08-22T20:40:29.414Z,96.50
2018-08-22T20:42:58.127Z,96.70
2018-08-22T20:45:30.949Z,96.90
2018-08-22T20:48:04.762Z,97.10
2018-08-22T20:50:33.983Z,97.30
2018-08-22T20:53:03.970Z,97.50
2018-08-22T20:55:32.844Z,97.80
2018-08-22T20:58:02.153Z,97.90
2018-08-22T21:00:31.347Z,98.00
2018-08-22T21:03:00.109Z,98.20
2018-08-22T21:05:29.449Z,98.50
2018-08-22T21:07:58.137Z,98.60
2018-08-22T21:10:26.819Z,98.70
2018-08-22T21:12:55.452Z,98.80
2018-08-22T21:15:24.095Z,99.00
2018-08-22T21:17:52.771Z,98.90
2018-08-22T21:20:22.970Z,98.90
2018-08-22T21:22:52.278Z,99.00
2018-08-22T21:25:20.901Z,99.10
2018-08-22T21:27:50.018Z,99.30
2018-08-22T21:30:18.826Z,99.40
2018-08-22T21:32:48.534Z,99.40
2018-08-22T21:35:24.846Z,99.40
2018-08-22T21:38:00.684Z,99.60
2018-08-22T21:40:29.324Z,99.70
2018-08-22T21:42:58.418Z,99.70
2018-08-22T21:45:27.032Z,99.70
2018-08-22T21:48:12.326Z,99.90
2018-08-22T21:50:41.516Z,99.90
2018-08-22T21:53:10.338Z,99.90
2018-08-22T21:55:40.020Z,99.90
2018-08-22T21:58:09.447Z,99.90
2018-08-22T22:00:38.158Z,99.90
2018-08-22T22:03:07.496Z,99.90
2018-08-22T22:05:52.974Z,99.90
2018-08-22T22:08:21.590Z,99.90
2018-08-22T22:10:54.683Z,99.90
2018-08-22T22:13:23.438Z,99.90
2018-08-22T22:15:52.036Z,99.90
2018-08-22T22:18:20.665Z,99.90
2018-08-22T22:20:51.007Z,99.90
2018-08-22T22:23:19.712Z,99.90
2018-08-22T22:25:48.357Z,99.90
2018-08-22T22:28:17.648Z,99.90
2018-08-22T22:30:46.275Z,99.90
2018-08-22T22:33:14.977Z,99.90
2018-08-22T22:35:43.610Z,99.90
2018-08-22T22:38:12.295Z,99.90
2018-08-22T22:40:41.140Z,99.90
2018-08-22T22:43:11.758Z,99.90
2018-08-22T22:45:40.494Z,99.90
2018-08-22T22:48:09.129Z,99.90
2018-08-22T22:50:37.767Z,99.90
2018-08-22T22:53:06.642Z,99.90
2018-08-22T22:55:35.289Z,99.90
2018-08-22T22:58:04.263Z,99.90
2018-08-22T23:00:32.943Z,99.90
2018-08-22T23:03:06.437Z,99.90
2018-08-22T23:05:35.141Z,99.90
2018-08-22T23:08:03.842Z,99.90
2018-08-22T23:10:32.486Z,99.90
2018-08-22T23:13:01.149Z,99.90
2018-08-22T23:15:30.782Z,99.90
2018-08-22T23:18:00.772Z,99.90
2018-08-22T23:20:40.857Z,99.90
2018-08-22T23:23:25.910Z,99.90
2018-08-22T23:25:55.448Z,99.90
2018-08-22T23:28:24.844Z,99.90
2018-08-22T23:30:54.227Z,99.90
2018-08-22T23:33:23.549Z,99.90
2018-08-22T23:35:52.996Z,99.90
2018-08-22T23:38:27.559Z,99.90
2018-08-22T23:40:56.180Z,99.90
2018-08-22T23:43:24.833Z,99.90
2018-08-22T23:45:56.048Z,99.90
2018-08-22T23:48:30.060Z,99.90
2018-08-22T23:51:00.530Z,99.90
2018-08-22T23:53:35.792Z,99.90
2018-08-22T23:56:15.318Z,99.90
2018-08-22T23:58:44.953Z,99.90
